• Join FlightAware (Why Join?)
  • Login
  • US Flag 
10:45PM EST


 

Airport Tracker/Info


-or-


 

Live Flight TrackerFlight Track Log ✈ AAL963 ✈ 30-Apr-2013 ✈ KDFW - SBGR / GRU

Flight Track Log - Related Links

Times and Time Zones

All times are in EDT time to prevent confusion due to time zone crossing. See the AAL963 flight status page for this flight to view local times or setup timezone preferences in your user account.

Time Position Orientation Groundspeed Altitude Reporting Facility
EDT Latitude Longitude Course Direction KTS MPH feet Rate Location/Type
09:27PM 32.8560 -97.0500 North 2,400  Level FlightAware
09:27PM 32.8440 -97.0500 180° South 2,700 1,740 Climbing FlightAware
09:28PM 32.8190 -97.0510 182° South 3,100 1,800 Climbing FlightAware
09:28PM 32.7860 -97.0520 181° South 4,100 1,800 Climbing FlightAware
09:29PM 32.7600 -97.0530 182° South 5,000 1,800 Climbing FlightAware
09:29PM 32.7240 -97.0530 180° South 6,200 1,800 Climbing FlightAware
09:29PM 32.7060 -97.0530 180° South 6,800 1,740 Climbing FlightAware
09:30PM 32.6730 -97.0540 181° South 7,700 1,740 Climbing FlightAware
09:30PM 32.6480 -97.0540 180° South 8,400 1,740 Climbing FlightAware
09:31PM 32.5830 -97.0540 180° South 9,700 1,680 Climbing FlightAware
09:32PM 32.5190 -97.0550 181° South 10,900 1,740 Climbing FlightAware
09:32PM 32.4700 -97.0550 180° South 11,300 1,740 Climbing FlightAware
09:33PM 32.3780 -97.0560 181° South 12,500 1,860 Climbing FlightAware
09:34PM 32.3020 -97.0570 181° South 13,500 1,980 Climbing FlightAware
09:34PM 32.2240 -97.0590 181° South 15,100 2,040 Climbing FlightAware
09:35PM 32.1350 -97.0610 181° South 16,700 1,980 Climbing FlightAware
09:36PM 32.0550 -97.0640 182° South 18,100 1,920 Climbing FlightAware
09:37PM 31.9660 -97.0670 182° South 19,500 1,860 Climbing FlightAware
09:37PM 31.8734 -97.0694 181° South 448 516 20,900 1,740 Climbing FlightAware ADS-B
09:38PM 31.8001 -97.0714 181° South 456 525 21,800 1,740 Climbing FlightAware ADS-B
09:38PM 31.7343 -97.0735 182° South 461 531 22,800 1,860 Climbing FlightAware ADS-B
09:39PM 31.6696 -97.0752 181° South 471 542 23,700 1,620 Climbing FlightAware ADS-B
09:39PM 31.6001 -97.0776 182° South 472 543 24,500 1,500 Climbing FlightAware ADS-B
09:40PM 31.5308 -97.0805 182° South 477 549 25,300 1,440 Climbing FlightAware ADS-B
09:41PM 31.4394 -97.0898 185° South 486 559 26,300 1,380 Climbing FlightAware ADS-B
09:41PM 31.3723 -97.0967 185° South 486 559 27,000 1,200 Climbing FlightAware ADS-B
09:42PM 31.2976 -97.1035 184° South 488 562 27,600 1,080 Climbing FlightAware ADS-B
09:42PM 31.2271 -97.1109 185° South 496 571 28,200 1,140 Climbing FlightAware ADS-B
09:43PM 31.1577 -97.1183 185° South 504 580 28,800 1,080 Climbing FlightAware ADS-B
09:43PM 31.1016 -97.1241 185° South 497 572 29,200 960 Climbing FlightAware ADS-B
09:43PM 31.0882 -97.1255 185° South 504 580 29,300 1,200 Climbing FlightAware ADS-B
09:44PM 31.0321 -97.1317 185° South 503 579 29,800 1,020 Climbing FlightAware ADS-B
09:44PM 31.0118 -97.1337 185° South 504 580 29,900 780 Climbing FlightAware ADS-B
09:44PM 30.9614 -97.1385 185° South 504 580 30,200 960 Climbing FlightAware ADS-B
09:44PM 30.9418 -97.1403 185° South 506 582 30,400 900 Climbing FlightAware ADS-B
09:45PM 30.8685 -97.1473 185° South 505 581 30,800 960 Climbing FlightAware ADS-B
09:45PM 30.7966 -97.1548 185° South 500 575 31,400 1,320 Climbing FlightAware ADS-B
09:46PM 30.7267 -97.1619 185° South 500 575 32,200 1,500 Climbing FlightAware ADS-B
09:46PM 30.7205 -97.1624 184° South 505 581 32,200 960 Level FlightAware ADS-B
09:46PM 30.6560 -97.1691 185° South 503 579 32,700 1,020 Climbing FlightAware ADS-B
09:47PM 30.6134 -97.1736 185° South 504 580 33,000 600 Climbing FlightAware ADS-B
09:47PM 30.5861 -97.1763 185° South 505 581 33,000  Level FlightAware ADS-B
09:47PM 30.5403 -97.1809 185° South 499 574 33,000  Level FlightAware ADS-B
09:47PM 30.5140 -97.1837 185° South 500 575 33,000  Level FlightAware ADS-B
09:48PM 30.4692 -97.1881 185° South 499 574 33,000  Level FlightAware ADS-B
09:48PM 30.4452 -97.1906 185° South 492 566 33,000  Level FlightAware ADS-B
09:48PM 30.3829 -97.1969 185° South 495 570 33,000  Level FlightAware ADS-B
09:48PM 30.3765 -97.1976 185° South 494 568 33,000  Level FlightAware ADS-B
09:49PM 30.3078 -97.2044 185° South 502 578 33,000  Level FlightAware ADS-B
09:49PM 30.2739 -97.2079 185° South 491 565 33,000  Level FlightAware ADS-B
09:49PM 30.2390 -97.2113 185° South 494 568 33,000  Level FlightAware ADS-B
09:50PM 30.1836 -97.2170 185° South 494 568 33,000  Level FlightAware ADS-B
09:50PM 30.1707 -97.2183 185° South 496 571 33,000  Level FlightAware ADS-B
09:50PM 30.1121 -97.2242 185° South 493 567 33,000  Level FlightAware ADS-B
09:50PM 30.1017 -97.2252 185° South 491 565 33,000  Level FlightAware ADS-B
09:51PM 30.0313 -97.2322 185° South 493 567 33,000  Level FlightAware ADS-B
09:51PM 29.9620 -97.2391 185° South 491 565 33,000  Level FlightAware ADS-B
09:51PM 29.9529 -97.2402 186° South 33,000  Level FlightAware ADS-B
09:52PM 29.8934 -97.2460 185° South 501 577 33,000  Level FlightAware ADS-B
09:52PM 29.8237 -97.2529 185° South 492 566 33,000  Level FlightAware ADS-B
09:53PM 29.7534 -97.2599 185° South 491 565 33,000  Level FlightAware ADS-B
09:53PM 29.7385 -97.2613 185° South 33,000  Level FlightAware ADS-B
09:53PM 29.6847 -97.2666 185° South 495 570 33,000  Level FlightAware ADS-B
09:54PM 29.6160 -97.2735 185° South 499 574 33,000  Level FlightAware ADS-B
09:54PM 29.5464 -97.2803 185° South 502 578 33,000  Level FlightAware ADS-B
09:55PM 29.4775 -97.2872 185° South 504 580 33,000  Level FlightAware ADS-B
09:55PM 29.4085 -97.2939 185° South 499 574 33,000  Level FlightAware ADS-B
09:56PM 29.3386 -97.3009 185° South 503 579 33,000  Level FlightAware ADS-B
09:56PM 29.2686 -97.3078 185° South 496 571 33,000  Level FlightAware ADS-B
09:57PM 29.1992 -97.3145 185° South 501 577 33,000  Level FlightAware ADS-B
09:57PM 29.1283 -97.3215 185° South 504 580 33,000  Level FlightAware ADS-B
09:58PM 29.0542 -97.3287 185° South 514 592 33,000  Level FlightAware ADS-B
09:58PM 28.9849 -97.3354 185° South 498 573 33,000  Level FlightAware ADS-B
09:59PM 28.9146 -97.3423 185° South 499 574 33,000  Level FlightAware ADS-B
10:00PM 28.8396 -97.3497 185° South 505 581 33,000  Level FlightAware ADS-B
10:00PM 28.7047 -97.3681 185° South 499 574 33,000 -60 Level Houston Center
10:02PM 28.5669 -97.3814 185° South 497 572 32,900  Descending Houston Center
10:03PM 28.4297 -97.3944 185° South 498 573 33,000  Climbing Houston Center
10:08PM 27.6620 -97.4300 185° South 33,000  Level FlightAware
10:09PM 27.5350 -97.4260 178° South 33,000  Level FlightAware
10:10PM 27.4420 -97.4220 178° South 33,000  Level FlightAware
10:10PM 27.3480 -97.4190 178° South 33,000  Level FlightAware
10:11PM 27.2420 -97.4150 178° South 33,000  Level FlightAware
10:12PM 27.1410 -97.4120 178° South 33,000  Level FlightAware
10:12PM 27.0480 -97.4080 178° South 33,000  Level FlightAware
10:13PM 26.9580 -97.3780 163° South 33,000  Level FlightAware
10:14PM 26.8720 -97.2990 141° Southeast 33,000  Level FlightAware
10:15PM 26.8030 -97.2250 136° Southeast 33,000  Level FlightAware
10:15PM 26.7260 -97.1420 136° Southeast 33,000  Level FlightAware
10:16PM 26.6560 -97.0670 136° Southeast 33,000  Level FlightAware
10:17PM 26.5870 -96.9930 136° Southeast 33,000  Level FlightAware
10:17PM 26.5040 -96.9060 137° Southeast 33,000  Level FlightAware
10:18PM 26.4330 -96.8300 136° Southeast 33,000  Level FlightAware
10:19PM 26.3530 -96.7470 137° Southeast 33,000  Level FlightAware
10:19PM 26.2800 -96.6730 138° Southeast 33,000  Level FlightAware
10:20PM 26.2070 -96.5990 138° Southeast 33,000  Level FlightAware
10:21PM 26.1350 -96.5260 138° Southeast 33,000  Level FlightAware
10:22PM 26.0550 -96.4440 137° Southeast 33,000  Level FlightAware
10:22PM 25.9710 -96.3600 138° Southeast 33,000  Level FlightAware
10:23PM 25.8990 -96.2870 138° Southeast 33,000  Level FlightAware
10:24PM 25.8250 -96.2120 138° Southeast 33,000  Level FlightAware
10:24PM 25.7460 -96.1330 138° Southeast 33,000  Level FlightAware
10:25PM 25.6760 -96.0620 138° Southeast 33,000  Level FlightAware
10:27PM 25.4910 -95.8760 138° Southeast 33,000  Level FlightAware
10:27PM 25.4190 -95.8040 138° Southeast 33,000  Level FlightAware
10:28PM 25.3460 -95.7310 138° Southeast 33,000  Level FlightAware
10:29PM 25.2650 -95.6510 138° Southeast 33,000  Level FlightAware
10:29PM 25.1930 -95.5790 138° Southeast 33,000  Level FlightAware
10:30PM 25.1210 -95.5080 138° Southeast 33,000  Level FlightAware
10:31PM 25.0510 -95.4380 138° Southeast 33,000  Level FlightAware
10:33PM 24.8963 -95.2463 132° Southeast  Level Estimated
10:34PM 24.8060 -95.1348 132° Southeast  Level Estimated
10:35PM 24.7157 -95.0235 132° Southeast  Level Estimated
10:36PM 24.6253 -94.9124 132° Southeast  Level Estimated
10:37PM 24.5348 -94.8014 132° Southeast  Level Estimated
10:38PM 24.4442 -94.6906 132° Southeast  Level Estimated
10:39PM 24.3536 -94.5799 132° Southeast  Level Estimated
10:40PM 24.2630 -94.4696 132° Southeast  Level Estimated
10:41PM 24.1723 -94.3594 132° Southeast  Level Estimated
10:42PM 24.0816 -94.2494 132° Southeast  Level Estimated
10:43PM 23.9908 -94.1396 132° Southeast  Level Estimated
10:44PM 23.8999 -94.0299 132° Southeast  Level Estimated
10:45PM 23.8088 -93.9202 132° Southeast  Level Estimated
10:46PM 23.7176 -93.8106 132° Southeast  Level Estimated
10:47PM 23.6263 -93.7012 132° Southeast  Level Estimated
10:48PM 23.5349 -93.5919 132° Southeast  Level Estimated
10:49PM 23.4435 -93.4828 132° Southeast  Level Estimated
10:50PM 23.3520 -93.3739 132° Southeast  Level Estimated
10:51PM 23.2604 -93.2651 132° Southeast  Level Estimated
10:52PM 23.1687 -93.1564 133° Southeast  Level Estimated
10:53PM 23.0770 -93.0479 133° Southeast  Level Estimated
10:54PM 22.9852 -92.9395 133° Southeast  Level Estimated
10:55PM 22.8933 -92.8313 133° Southeast  Level Estimated
10:56PM 22.8013 -92.7232 133° Southeast  Level Estimated
10:57PM 22.7093 -92.6153 133° Southeast  Level Estimated
10:58PM 22.6172 -92.5075 133° Southeast  Level Estimated
10:59PM 22.5250 -92.3999 133° Southeast  Level Estimated
11:00PM 22.4328 -92.2924 133° Southeast  Level Estimated
11:01PM 22.3405 -92.1850 133° Southeast  Level Estimated
11:02PM 22.2481 -92.0778 133° Southeast  Level Estimated
11:03PM 22.1556 -91.9707 133° Southeast  Level Estimated
11:04PM 22.0631 -91.8638 133° Southeast  Level Estimated
11:05PM 21.9705 -91.7570 133° Southeast  Level Estimated
11:06PM 21.8778 -91.6504 133° Southeast  Level Estimated
11:07PM 21.7851 -91.5439 133° Southeast  Level Estimated
11:08PM 21.6923 -91.4375 133° Southeast  Level Estimated
11:09PM 21.5994 -91.3313 133° Southeast  Level Estimated
11:10PM 21.5065 -91.2252 133° Southeast  Level Estimated
11:11PM 21.4135 -91.1192 133° Southeast  Level Estimated
11:12PM 21.3204 -91.0134 133° Southeast  Level Estimated
11:13PM 21.2273 -90.9077 133° Southeast  Level Estimated
11:14PM 21.1341 -90.8021 133° Southeast  Level Estimated
11:15PM 21.0408 -90.6967 133° Southeast  Level Estimated
11:16PM 20.9475 -90.5914 133° Southeast  Level Estimated
11:17PM 20.8541 -90.4863 134° Southeast  Level Estimated
11:18PM 20.7606 -90.3812 134° Southeast  Level Estimated
11:19PM 20.6671 -90.2763 134° Southeast  Level Estimated
11:20PM 20.5735 -90.1715 134° Southeast  Level Estimated
11:21PM 20.4799 -90.0669 134° Southeast  Level Estimated
11:22PM 20.3862 -89.9624 134° Southeast  Level Estimated
11:23PM 20.2924 -89.8580 134° Southeast  Level Estimated
11:24PM 20.1985 -89.7537 134° Southeast  Level Estimated
11:25PM 20.1046 -89.6496 134° Southeast  Level Estimated
11:26PM 20.0107 -89.5456 134° Southeast  Level Estimated
11:27PM 19.9167 -89.4417 134° Southeast  Level Estimated
11:28PM 19.8226 -89.3379 134° Southeast  Level Estimated
11:29PM 19.7284 -89.2343 134° Southeast  Level Estimated
11:30PM 19.6342 -89.1308 134° Southeast  Level Estimated
11:31PM 19.5400 -89.0274 134° Southeast  Level Estimated
11:32PM 19.4457 -88.9241 134° Southeast  Level Estimated
11:33PM 19.3513 -88.8209 134° Southeast  Level Estimated
11:34PM 19.2568 -88.7179 134° Southeast  Level Estimated
11:35PM 19.1623 -88.6150 134° Southeast  Level Estimated
11:36PM 19.0678 -88.5122 134° Southeast  Level Estimated
11:37PM 18.9732 -88.4095 134° Southeast  Level Estimated
11:38PM 18.8785 -88.3069 134° Southeast  Level Estimated
11:39PM 18.7838 -88.2045 134° Southeast  Level Estimated
11:40PM 18.6890 -88.1021 134° Southeast  Level Estimated
11:41PM 18.5942 -87.9999 134° Southeast  Level Estimated
11:42PM 18.4993 -87.8978 134° Southeast  Level Estimated
11:43PM 18.4044 -87.7958 134° Southeast  Level Estimated
11:44PM 18.3094 -87.6939 134° Southeast  Level Estimated
11:45PM 18.2143 -87.5921 135° Southeast  Level Estimated
11:46PM 18.1192 -87.4905 135° Southeast  Level Estimated
11:47PM 18.0241 -87.3889 135° Southeast  Level Estimated
11:48PM 17.9289 -87.2875 135° Southeast  Level Estimated
11:49PM 17.8336 -87.1861 135° Southeast  Level Estimated
11:50PM 17.7383 -87.0849 135° Southeast  Level Estimated
11:51PM 17.6430 -86.9838 135° Southeast  Level Estimated
11:52PM 17.5475 -86.8828 135° Southeast  Level Estimated
11:53PM 17.4521 -86.7819 135° Southeast  Level Estimated
11:54PM 17.3566 -86.6811 135° Southeast  Level Estimated
11:55PM 17.2610 -86.5804 135° Southeast  Level Estimated
11:56PM 17.1654 -86.4798 135° Southeast  Level Estimated
11:57PM 17.0697 -86.3793 135° Southeast  Level Estimated
11:58PM 16.9740 -86.2790 135° Southeast  Level Estimated
11:59PM 16.8782 -86.1787 135° Southeast  Level Estimated
12:00AM 16.7824 -86.0785 135° Southeast  Level Estimated
12:01AM 16.6865 -85.9784 135° Southeast  Level Estimated
12:02AM 16.5906 -85.8784 135° Southeast  Level Estimated
12:03AM 16.4947 -85.7786 135° Southeast  Level Estimated
12:04AM 16.3986 -85.6788 135° Southeast  Level Estimated
12:05AM 16.3026 -85.5791 135° Southeast  Level Estimated
12:06AM 16.2065 -85.4795 135° Southeast  Level Estimated
12:07AM 16.1103 -85.3800 135° Southeast  Level Estimated
12:08AM 16.0142 -85.2806 135° Southeast  Level Estimated
12:09AM 15.9179 -85.1814 135° Southeast  Level Estimated
12:10AM 15.8216 -85.0822 135° Southeast  Level Estimated
12:11AM 15.7253 -84.9831 135° Southeast  Level Estimated
12:12AM 15.6289 -84.8840 135° Southeast  Level Estimated
12:13AM 15.5325 -84.7851 135° Southeast  Level Estimated
12:14AM 15.4361 -84.6863 135° Southeast  Level Estimated
12:15AM 15.3396 -84.5876 135° Southeast  Level Estimated
12:16AM 15.2430 -84.4889 135° Southeast  Level Estimated
12:17AM 15.1464 -84.3904 135° Southeast  Level Estimated
12:18AM 15.0498 -84.2919 135° Southeast  Level Estimated
12:19AM 14.9531 -84.1936 135° Southeast  Level Estimated
12:20AM 14.8564 -84.0953 136° Southeast  Level Estimated
12:21AM 14.7596 -83.9971 136° Southeast  Level Estimated
12:22AM 14.6628 -83.8990 136° Southeast  Level Estimated
12:23AM 14.5660 -83.8010 136° Southeast  Level Estimated
12:24AM 14.4691 -83.7030 136° Southeast  Level Estimated
12:25AM 14.3722 -83.6052 136° Southeast  Level Estimated
12:26AM 14.2752 -83.5074 136° Southeast  Level Estimated
12:27AM 14.1782 -83.4097 136° Southeast  Level Estimated
12:28AM 14.0812 -83.3121 136° Southeast  Level Estimated
12:29AM 13.9841 -83.2146 136° Southeast  Level Estimated
12:30AM 13.8870 -83.1172 136° Southeast  Level Estimated
12:31AM 13.7896 -83.0197 136° Southeast  Level Estimated
12:32AM 13.6923 -82.9222 136° Southeast  Level Estimated
12:33AM 13.5949 -82.8249 136° Southeast  Level Estimated
12:34AM 13.4974 -82.7276 136° Southeast  Level Estimated
12:35AM 13.4000 -82.6304 136° Southeast  Level Estimated
12:36AM 13.3024 -82.5333 136° Southeast  Level Estimated
12:37AM 13.2049 -82.4362 136° Southeast  Level Estimated
12:38AM 13.1073 -82.3393 136° Southeast  Level Estimated
12:39AM 13.0097 -82.2424 136° Southeast  Level Estimated
12:40AM 12.9120 -82.1456 136° Southeast  Level Estimated
12:41AM 12.8143 -82.0489 136° Southeast  Level Estimated
12:42AM 12.7165 -81.9522 136° Southeast  Level Estimated
12:43AM 12.6188 -81.8556 136° Southeast  Level Estimated
12:44AM 12.5210 -81.7591 136° Southeast  Level Estimated
12:45AM 12.4231 -81.6627 136° Southeast  Level Estimated
12:46AM 12.3253 -81.5663 136° Southeast  Level Estimated
12:47AM 12.2274 -81.4700 136° Southeast  Level Estimated
12:48AM 12.1294 -81.3738 136° Southeast  Level Estimated
12:49AM 12.0314 -81.2776 136° Southeast  Level Estimated
12:50AM 11.9334 -81.1815 136° Southeast  Level Estimated
12:51AM 11.8354 -81.0855 136° Southeast  Level Estimated
12:52AM 11.7373 -80.9896 136° Southeast  Level Estimated
12:53AM 11.6392 -80.8937 136° Southeast  Level Estimated
12:54AM 11.5411 -80.7979 136° Southeast  Level Estimated
12:55AM 11.4429 -80.7022 136° Southeast  Level Estimated
12:56AM 11.3447 -80.6065 136° Southeast  Level Estimated
12:57AM 11.2465 -80.5109 136° Southeast  Level Estimated
12:58AM 11.1482 -80.4154 136° Southeast  Level Estimated
12:59AM 11.0499 -80.3199 136° Southeast  Level Estimated
12:59AM 11.4750 -77.7830 136° Southeast 35,000  Level FlightAware
01:00AM 10.9516 -80.2245 136° Southeast  Level Estimated
01:01AM 10.8533 -80.1291 136° Southeast  Level Estimated
01:01AM 11.3270 -77.6680 143° Southeast 35,000  Level FlightAware
01:04AM 11.0278 -77.4685 147° Southeast  Level FlightAware Approximate
01:05AM 10.9176 -77.3862 137° Southeast  Level FlightAware Approximate
01:05AM 10.8450 -77.2680 137° Southeast 35,000  Level FlightAware
01:06AM 10.7840 -77.2110 137° Southeast 35,000  Level FlightAware
01:08AM 10.6080 -77.0480 138° Southeast 35,000  Level FlightAware
01:08AM 10.5370 -76.9830 138° Southeast 35,000  Level FlightAware
01:09AM 10.4680 -76.9200 138° Southeast 35,000  Level FlightAware
01:10AM 10.3920 -76.8500 138° Southeast 35,000  Level FlightAware
01:10AM 10.3240 -76.7870 138° Southeast 35,000  Level FlightAware
01:11AM 10.2480 -76.7170 138° Southeast 35,000  Level FlightAware
01:12AM 10.1880 -76.6610 137° Southeast 35,000  Level FlightAware
01:13AM 10.0900 -76.5710 138° Southeast 35,000  Level FlightAware
01:14AM 10.0160 -76.5030 138° Southeast 35,000  Level FlightAware
01:16AM 9.7990 -76.3416 138° Southeast  Level FlightAware Approximate
01:17AM 9.6977 -76.2498 138° Southeast  Level FlightAware Approximate
01:18AM 9.5965 -76.1580 138° Southeast  Level FlightAware Approximate
01:19AM 9.4952 -76.0663 138° Southeast  Level FlightAware Approximate
01:20AM 9.3939 -75.9746 138° Southeast  Level FlightAware Approximate
01:21AM 9.2949 -75.8804 136° Southeast  Level FlightAware Approximate
01:22AM 9.1968 -75.7853 136° Southeast  Level FlightAware Approximate
01:23AM 9.0986 -75.6903 136° Southeast  Level FlightAware Approximate
01:24AM 9.0004 -75.5953 136° Southeast  Level FlightAware Approximate
01:25AM 8.9022 -75.5004 136° Southeast  Level FlightAware Approximate
01:26AM 8.8023 -75.4073 139° Southeast  Level FlightAware Approximate
01:27AM 8.7005 -75.3164 139° Southeast  Level FlightAware Approximate
01:28AM 8.5987 -75.2255 139° Southeast  Level FlightAware Approximate
01:29AM 8.4969 -75.1347 139° Southeast  Level FlightAware Approximate
01:30AM 8.3950 -75.0439 139° Southeast  Level FlightAware Approximate
01:31AM 8.2931 -74.9531 139° Southeast  Level FlightAware Approximate
01:32AM 8.1912 -74.8624 139° Southeast  Level FlightAware Approximate
01:33AM 8.0893 -74.7718 139° Southeast  Level FlightAware Approximate
01:34AM 7.9874 -74.6812 139° Southeast  Level FlightAware Approximate
01:35AM 7.8854 -74.5906 139° Southeast  Level FlightAware Approximate
01:36AM 7.7835 -74.5001 139° Southeast  Level FlightAware Approximate
01:37AM 7.6829 -74.4081 138° Southeast  Level FlightAware Approximate
01:38AM 7.5823 -74.3161 138° Southeast  Level FlightAware Approximate
01:39AM 7.4816 -74.2241 138° Southeast  Level FlightAware Approximate
01:40AM 7.3810 -74.1322 138° Southeast  Level FlightAware Approximate
01:41AM 7.2803 -74.0403 138° Southeast  Level FlightAware Approximate
01:42AM 7.1796 -73.9485 138° Southeast  Level FlightAware Approximate
01:43AM 7.0789 -73.8567 138° Southeast  Level FlightAware Approximate
01:44AM 6.9710 -73.7752 152° Southeast  Level FlightAware Approximate
01:45AM 6.8515 -73.7102 152° Southeast  Level FlightAware Approximate
01:46AM 6.7320 -73.6452 152° Southeast  Level FlightAware Approximate
01:47AM 6.6125 -73.5803 152° Southeast  Level FlightAware Approximate
01:48AM 6.4930 -73.5154 152° Southeast  Level FlightAware Approximate
01:49AM 6.3734 -73.4506 152° Southeast  Level FlightAware Approximate
01:50AM 6.2539 -73.3858 152° Southeast  Level FlightAware Approximate
01:51AM 6.1344 -73.3210 152° Southeast  Level FlightAware Approximate
01:52AM 6.0148 -73.2562 152° Southeast  Level FlightAware Approximate
01:53AM 5.8953 -73.1915 152° Southeast  Level FlightAware Approximate
01:54AM 5.7757 -73.1268 152° Southeast  Level FlightAware Approximate
01:55AM 5.6561 -73.0621 152° Southeast  Level FlightAware Approximate
01:56AM 5.5365 -72.9975 152° Southeast  Level FlightAware Approximate
01:57AM 5.4170 -72.9329 152° Southeast  Level FlightAware Approximate
01:58AM 5.2974 -72.8682 152° Southeast  Level FlightAware Approximate
01:59AM 5.1778 -72.8037 152° Southeast  Level FlightAware Approximate
02:00AM 5.0581 -72.7391 152° Southeast  Level FlightAware Approximate
02:01AM 4.9385 -72.6746 152° Southeast  Level FlightAware Approximate
02:02AM 4.8189 -72.6101 152° Southeast  Level FlightAware Approximate
02:03AM 4.6993 -72.5456 152° Southeast  Level FlightAware Approximate
02:04AM 4.5797 -72.4812 152° Southeast  Level FlightAware Approximate
02:05AM 4.4600 -72.4167 152° Southeast  Level FlightAware Approximate
02:06AM 4.3404 -72.3523 152° Southeast  Level FlightAware Approximate
02:07AM 4.2207 -72.2879 152° Southeast  Level FlightAware Approximate
02:08AM 4.1011 -72.2235 152° Southeast  Level FlightAware Approximate
02:09AM 3.9814 -72.1592 152° Southeast  Level FlightAware Approximate
02:10AM 3.8669 -72.0865 145° Southeast  Level FlightAware Approximate
02:11AM 3.7559 -72.0081 145° Southeast  Level FlightAware Approximate
02:12AM 3.6449 -71.9298 145° Southeast  Level FlightAware Approximate
02:13AM 3.5338 -71.8515 145° Southeast  Level FlightAware Approximate
02:14AM 3.4228 -71.7732 145° Southeast  Level FlightAware Approximate
02:15AM 3.3117 -71.6949 145° Southeast  Level FlightAware Approximate
02:16AM 3.2006 -71.6167 145° Southeast  Level FlightAware Approximate
02:17AM 3.0896 -71.5384 145° Southeast  Level FlightAware Approximate
02:18AM 2.9785 -71.4602 145° Southeast  Level FlightAware Approximate
02:19AM 2.8674 -71.3820 145° Southeast  Level FlightAware Approximate
02:20AM 2.7563 -71.3038 145° Southeast  Level FlightAware Approximate
02:21AM 2.6452 -71.2256 145° Southeast  Level FlightAware Approximate
02:22AM 2.5341 -71.1475 145° Southeast  Level FlightAware Approximate
02:23AM 2.4230 -71.0693 145° Southeast  Level FlightAware Approximate
02:24AM 2.3119 -70.9912 145° Southeast  Level FlightAware Approximate
02:25AM 2.2008 -70.9131 145° Southeast  Level FlightAware Approximate
02:26AM 2.0897 -70.8350 145° Southeast  Level FlightAware Approximate
02:27AM 1.9786 -70.7569 145° Southeast  Level FlightAware Approximate
02:28AM 1.8675 -70.6788 145° Southeast  Level FlightAware Approximate
02:29AM 1.7564 -70.6007 145° Southeast  Level FlightAware Approximate
02:30AM 1.6452 -70.5226 145° Southeast  Level FlightAware Approximate
02:31AM 1.5341 -70.4445 145° Southeast  Level FlightAware Approximate
02:32AM 1.4230 -70.3665 145° Southeast  Level FlightAware Approximate
02:33AM 1.3118 -70.2885 145° Southeast  Level FlightAware Approximate
02:34AM 1.2035 -70.2068 138° Southeast  Level FlightAware Approximate
02:35AM 1.1021 -70.1165 138° Southeast  Level FlightAware Approximate
02:36AM 1.0007 -70.0262 138° Southeast  Level FlightAware Approximate
02:37AM 0.8993 -69.9359 138° Southeast  Level FlightAware Approximate
02:38AM 0.7978 -69.8456 138° Southeast  Level FlightAware Approximate
02:39AM 0.6964 -69.7553 138° Southeast  Level FlightAware Approximate
02:40AM 0.5950 -69.6650 138° Southeast  Level FlightAware Approximate
02:41AM 0.4935 -69.5748 138° Southeast  Level FlightAware Approximate
02:42AM 0.3921 -69.4845 138° Southeast  Level FlightAware Approximate
02:43AM 0.2907 -69.3942 138° Southeast  Level FlightAware Approximate
02:44AM 0.1892 -69.3039 138° Southeast  Level FlightAware Approximate
02:45AM 0.0878 -69.2137 138° Southeast  Level FlightAware Approximate
02:46AM -0.0137 -69.1234 138° Southeast  Level FlightAware Approximate
02:47AM -0.1151 -69.0331 138° Southeast  Level FlightAware Approximate
02:48AM -0.2165 -68.9428 138° Southeast  Level FlightAware Approximate
02:49AM -0.3180 -68.8526 138° Southeast  Level FlightAware Approximate
02:50AM -0.4194 -68.7623 138° Southeast  Level FlightAware Approximate
02:51AM -0.5209 -68.6720 138° Southeast  Level FlightAware Approximate
02:52AM -0.6223 -68.5817 138° Southeast  Level FlightAware Approximate
02:53AM -0.7237 -68.4914 138° Southeast  Level FlightAware Approximate
02:54AM -0.8252 -68.4012 138° Southeast  Level FlightAware Approximate
02:55AM -0.9266 -68.3109 138° Southeast  Level FlightAware Approximate
02:56AM -1.0280 -68.2206 138° Southeast  Level FlightAware Approximate
02:57AM -1.1295 -68.1303 138° Southeast  Level FlightAware Approximate
02:58AM -1.2309 -68.0399 138° Southeast  Level FlightAware Approximate
02:59AM -1.3323 -67.9496 138° Southeast  Level FlightAware Approximate
03:00AM -1.4337 -67.8593 138° Southeast  Level FlightAware Approximate
03:01AM -1.5351 -67.7690 138° Southeast  Level FlightAware Approximate
03:02AM -1.6365 -67.6786 138° Southeast  Level FlightAware Approximate
03:03AM -1.7379 -67.5883 138° Southeast  Level FlightAware Approximate
03:04AM -1.8393 -67.4979 138° Southeast  Level FlightAware Approximate
03:05AM -1.9407 -67.4075 138° Southeast  Level FlightAware Approximate
03:06AM -2.0421 -67.3172 138° Southeast  Level FlightAware Approximate
03:07AM -2.1435 -67.2268 138° Southeast  Level FlightAware Approximate
03:08AM -2.2449 -67.1364 138° Southeast  Level FlightAware Approximate
03:09AM -2.3463 -67.0460 138° Southeast  Level FlightAware Approximate
03:10AM -2.4476 -66.9555 138° Southeast  Level FlightAware Approximate
03:11AM -2.5490 -66.8651 138° Southeast  Level FlightAware Approximate
03:12AM -2.6504 -66.7746 138° Southeast  Level FlightAware Approximate
03:13AM -2.7517 -66.6842 138° Southeast  Level FlightAware Approximate
03:14AM -2.8530 -66.5937 138° Southeast  Level FlightAware Approximate
03:15AM -2.9544 -66.5032 138° Southeast  Level FlightAware Approximate
03:16AM -3.0557 -66.4126 138° Southeast  Level FlightAware Approximate
03:17AM -3.1570 -66.3221 138° Southeast  Level FlightAware Approximate
03:18AM -3.2583 -66.2315 138° Southeast  Level FlightAware Approximate
03:19AM -3.3597 -66.1410 138° Southeast  Level FlightAware Approximate
03:20AM -3.4610 -66.0504 138° Southeast  Level FlightAware Approximate
03:21AM -3.5622 -65.9598 138° Southeast  Level FlightAware Approximate
03:22AM -3.6635 -65.8691 138° Southeast  Level FlightAware Approximate
03:23AM -3.7648 -65.7785 138° Southeast  Level FlightAware Approximate
03:24AM -3.8661 -65.6878 138° Southeast  Level FlightAware Approximate
03:25AM -3.9673 -65.5971 138° Southeast  Level FlightAware Approximate
03:26AM -4.0687 -65.5062 138° Southeast  Level FlightAware Approximate
03:27AM -4.1701 -65.4153 138° Southeast  Level FlightAware Approximate
03:28AM -4.2715 -65.3244 138° Southeast  Level FlightAware Approximate
03:29AM -4.3729 -65.2335 138° Southeast  Level FlightAware Approximate
03:30AM -4.4743 -65.1425 138° Southeast  Level FlightAware Approximate
03:31AM -4.5757 -65.0515 138° Southeast  Level FlightAware Approximate
03:32AM -4.6770 -64.9605 138° Southeast  Level FlightAware Approximate
03:33AM -4.7784 -64.8694 138° Southeast  Level FlightAware Approximate
03:34AM -4.8797 -64.7784 138° Southeast  Level FlightAware Approximate
03:35AM -4.9810 -64.6872 138° Southeast  Level FlightAware Approximate
03:36AM -5.0823 -64.5961 138° Southeast  Level FlightAware Approximate
03:37AM -5.1836 -64.5050 138° Southeast  Level FlightAware Approximate
03:38AM -5.2849 -64.4138 138° Southeast  Level FlightAware Approximate
03:39AM -5.3862 -64.3225 138° Southeast  Level FlightAware Approximate
03:40AM -5.4874 -64.2313 138° Southeast  Level FlightAware Approximate
03:41AM -5.5887 -64.1400 138° Southeast  Level FlightAware Approximate
03:42AM -5.6899 -64.0487 138° Southeast  Level FlightAware Approximate
03:43AM -5.7911 -63.9574 138° Southeast  Level FlightAware Approximate
03:44AM -5.8923 -63.8660 138° Southeast  Level FlightAware Approximate
03:45AM -5.9935 -63.7746 138° Southeast  Level FlightAware Approximate
03:46AM -6.0946 -63.6831 138° Southeast  Level FlightAware Approximate
03:47AM -6.1958 -63.5916 138° Southeast  Level FlightAware Approximate
03:48AM -6.2969 -63.5001 138° Southeast  Level FlightAware Approximate
03:49AM -6.3980 -63.4086 138° Southeast  Level FlightAware Approximate
03:50AM -6.4991 -63.3170 138° Southeast  Level FlightAware Approximate
03:51AM -6.6002 -63.2254 138° Southeast  Level FlightAware Approximate
03:52AM -6.7013 -63.1337 138° Southeast  Level FlightAware Approximate
03:53AM -6.8023 -63.0420 138° Southeast  Level FlightAware Approximate
03:54AM -6.9034 -62.9503 138° Southeast  Level FlightAware Approximate
03:55AM -7.0044 -62.8585 138° Southeast  Level FlightAware Approximate
03:56AM -7.1054 -62.7667 138° Southeast  Level FlightAware Approximate
03:57AM -7.2064 -62.6748 138° Southeast  Level FlightAware Approximate
03:58AM -7.3073 -62.5829 138° Southeast  Level FlightAware Approximate
03:59AM -7.4083 -62.4910 138° Southeast  Level FlightAware Approximate
04:00AM -7.5092 -62.3990 138° Southeast  Level FlightAware Approximate
04:01AM -7.6101 -62.3070 138° Southeast  Level FlightAware Approximate
04:02AM -7.7110 -62.2149 138° Southeast  Level FlightAware Approximate
04:03AM -7.8119 -62.1228 138° Southeast  Level FlightAware Approximate
04:04AM -7.9127 -62.0306 138° Southeast  Level FlightAware Approximate
04:05AM -8.0135 -61.9384 138° Southeast  Level FlightAware Approximate
04:06AM -8.1144 -61.8462 138° Southeast  Level FlightAware Approximate
04:07AM -8.2151 -61.7539 138° Southeast  Level FlightAware Approximate
04:08AM -8.3159 -61.6615 138° Southeast  Level FlightAware Approximate
04:09AM -8.4166 -61.5692 138° Southeast  Level FlightAware Approximate
04:10AM -8.5176 -61.4766 138° Southeast  Level FlightAware Approximate
04:11AM -8.6184 -61.3839 138° Southeast  Level FlightAware Approximate
04:12AM -8.7193 -61.2912 138° Southeast  Level FlightAware Approximate
04:13AM -8.8201 -61.1985 138° Southeast  Level FlightAware Approximate
04:14AM -8.9209 -61.1057 138° Southeast  Level FlightAware Approximate
04:15AM -9.0217 -61.0128 138° Southeast  Level FlightAware Approximate
04:16AM -9.1225 -60.9199 138° Southeast  Level FlightAware Approximate
04:17AM -9.2232 -60.8270 138° Southeast  Level FlightAware Approximate
04:18AM -9.3239 -60.7340 138° Southeast  Level FlightAware Approximate
04:19AM -9.4246 -60.6409 138° Southeast  Level FlightAware Approximate
04:20AM -9.5253 -60.5478 138° Southeast  Level FlightAware Approximate
04:21AM -9.6259 -60.4546 138° Southeast  Level FlightAware Approximate
04:22AM -9.7266 -60.3614 138° Southeast  Level FlightAware Approximate
04:23AM -9.8271 -60.2681 138° Southeast  Level FlightAware Approximate
04:24AM -9.9277 -60.1748 138° Southeast  Level FlightAware Approximate
04:25AM -10.0282 -60.0814 138° Southeast  Level FlightAware Approximate
04:26AM -10.1288 -59.9879 138° Southeast  Level FlightAware Approximate
04:27AM -10.2292 -59.8944 138° Southeast  Level FlightAware Approximate
04:28AM -10.3297 -59.8008 138° Southeast  Level FlightAware Approximate
04:29AM -10.4301 -59.7072 137° Southeast  Level FlightAware Approximate
04:30AM -10.5306 -59.6135 137° Southeast  Level FlightAware Approximate
04:31AM -10.6309 -59.5198 137° Southeast  Level FlightAware Approximate
04:32AM -10.7315 -59.4258 137° Southeast  Level FlightAware Approximate
04:33AM -10.8320 -59.3318 137° Southeast  Level FlightAware Approximate
04:34AM -10.9324 -59.2377 137° Southeast  Level FlightAware Approximate
04:35AM -11.0329 -59.1435 137° Southeast  Level FlightAware Approximate
04:36AM -11.1333 -59.0493 137° Southeast  Level FlightAware Approximate
04:37AM -11.2337 -58.9550 137° Southeast  Level FlightAware Approximate
04:38AM -11.3340 -58.8606 137° Southeast  Level FlightAware Approximate
04:39AM -11.4343 -58.7662 137° Southeast  Level FlightAware Approximate
04:40AM -11.5346 -58.6717 137° Southeast  Level FlightAware Approximate
04:41AM -11.6349 -58.5771 137° Southeast  Level FlightAware Approximate
04:42AM -11.7351 -58.4825 137° Southeast  Level FlightAware Approximate
04:43AM -11.8353 -58.3878 137° Southeast  Level FlightAware Approximate
04:44AM -11.9355 -58.2930 137° Southeast  Level FlightAware Approximate
04:45AM -12.0356 -58.1982 137° Southeast  Level FlightAware Approximate
04:46AM -12.1357 -58.1033 137° Southeast  Level FlightAware Approximate
04:47AM -12.2358 -58.0083 137° Southeast  Level FlightAware Approximate
04:48AM -12.3358 -57.9132 137° Southeast  Level FlightAware Approximate
04:49AM -12.4359 -57.8181 137° Southeast  Level FlightAware Approximate
04:50AM -12.5358 -57.7229 137° Southeast  Level FlightAware Approximate
04:51AM -12.6358 -57.6276 137° Southeast  Level FlightAware Approximate
04:52AM -12.7357 -57.5323 137° Southeast  Level FlightAware Approximate
04:53AM -12.8356 -57.4369 137° Southeast  Level FlightAware Approximate
04:54AM -12.9354 -57.3414 137° Southeast  Level FlightAware Approximate
04:55AM -13.0352 -57.2458 137° Southeast  Level FlightAware Approximate
04:56AM -13.1350 -57.1501 137° Southeast  Level FlightAware Approximate
04:57AM -13.2349 -57.0542 137° Southeast  Level FlightAware Approximate
04:58AM -13.3348 -56.9583 137° Southeast  Level FlightAware Approximate
04:59AM -13.4346 -56.8622 137° Southeast  Level FlightAware Approximate
05:00AM -13.5344 -56.7661 137° Southeast  Level FlightAware Approximate
05:01AM -13.6342 -56.6698 137° Southeast  Level FlightAware Approximate
05:02AM -13.7339 -56.5735 137° Southeast  Level FlightAware Approximate
05:03AM -13.8336 -56.4772 137° Southeast  Level FlightAware Approximate
05:04AM -13.9332 -56.3807 137° Southeast  Level FlightAware Approximate
05:05AM -14.0329 -56.2841 137° Southeast  Level FlightAware Approximate
05:06AM -14.1324 -56.1875 137° Southeast  Level FlightAware Approximate
05:07AM -14.2320 -56.0908 137° Southeast  Level FlightAware Approximate
05:08AM -14.3315 -55.9940 137° Southeast  Level FlightAware Approximate
05:09AM -14.4309 -55.8971 137° Southeast  Level FlightAware Approximate
05:10AM -14.5303 -55.8001 137° Southeast  Level FlightAware Approximate
05:11AM -14.6297 -55.7031 137° Southeast  Level FlightAware Approximate
05:12AM -14.7291 -55.6059 137° Southeast  Level FlightAware Approximate
05:13AM -14.8284 -55.5087 137° Southeast  Level FlightAware Approximate
05:14AM -14.9276 -55.4114 137° Southeast  Level FlightAware Approximate
05:15AM -15.0268 -55.3139 137° Southeast  Level FlightAware Approximate
05:16AM -15.1260 -55.2164 137° Southeast  Level FlightAware Approximate
05:17AM -15.2252 -55.1188 136° Southeast  Level FlightAware Approximate
05:18AM -15.3243 -55.0211 136° Southeast  Level FlightAware Approximate
05:19AM -15.4233 -54.9234 136° Southeast  Level FlightAware Approximate
05:20AM -15.5223 -54.8255 136° Southeast  Level FlightAware Approximate
05:21AM -15.6213 -54.7275 136° Southeast  Level FlightAware Approximate
05:22AM -15.7202 -54.6295 136° Southeast  Level FlightAware Approximate
05:23AM -15.8191 -54.5313 136° Southeast  Level FlightAware Approximate
05:24AM -15.9179 -54.4330 136° Southeast  Level FlightAware Approximate
05:25AM -16.0167 -54.3347 136° Southeast  Level FlightAware Approximate
05:26AM -16.1154 -54.2362 136° Southeast  Level FlightAware Approximate
05:27AM -16.2141 -54.1377 136° Southeast  Level FlightAware Approximate
05:28AM -16.3128 -54.0390 136° Southeast  Level FlightAware Approximate
05:29AM -16.4114 -53.9403 136° Southeast  Level FlightAware Approximate
05:30AM -16.5100 -53.8414 136° Southeast  Level FlightAware Approximate
05:31AM -16.6085 -53.7425 136° Southeast  Level FlightAware Approximate
05:32AM -16.7069 -53.6434 136° Southeast  Level FlightAware Approximate
05:33AM -16.8053 -53.5443 136° Southeast  Level FlightAware Approximate
05:34AM -16.9037 -53.4450 136° Southeast  Level FlightAware Approximate
05:35AM -17.0021 -53.3457 136° Southeast  Level FlightAware Approximate
05:36AM -17.1003 -53.2462 136° Southeast  Level FlightAware Approximate
05:37AM -17.1986 -53.1466 136° Southeast  Level FlightAware Approximate
05:38AM -17.2967 -53.0470 136° Southeast  Level FlightAware Approximate
05:39AM -17.3949 -52.9472 136° Southeast  Level FlightAware Approximate
05:40AM -17.4930 -52.8473 136° Southeast  Level FlightAware Approximate
05:41AM -17.5910 -52.7473 136° Southeast  Level FlightAware Approximate
05:42AM -17.6890 -52.6472 136° Southeast  Level FlightAware Approximate
05:43AM -17.7869 -52.5470 136° Southeast  Level FlightAware Approximate
05:44AM -17.8848 -52.4467 136° Southeast  Level FlightAware Approximate
05:45AM -17.9826 -52.3462 136° Southeast  Level FlightAware Approximate
05:46AM -18.0804 -52.2457 136° Southeast  Level FlightAware Approximate
05:47AM -18.1781 -52.1451 136° Southeast  Level FlightAware Approximate
05:48AM -18.2758 -52.0443 136° Southeast  Level FlightAware Approximate
05:49AM -18.3734 -51.9434 136° Southeast  Level FlightAware Approximate
05:50AM -18.4709 -51.8424 136° Southeast  Level FlightAware Approximate
05:51AM -18.5685 -51.7413 136° Southeast  Level FlightAware Approximate
05:52AM -18.6659 -51.6401 135° Southeast  Level FlightAware Approximate
05:53AM -18.7633 -51.5387 135° Southeast  Level FlightAware Approximate
05:54AM -18.8607 -51.4373 135° Southeast  Level FlightAware Approximate
05:55AM -18.9580 -51.3357 135° Southeast  Level FlightAware Approximate
05:56AM -19.0552 -51.2340 135° Southeast  Level FlightAware Approximate
05:57AM -19.1524 -51.1322 135° Southeast  Level FlightAware Approximate
05:58AM -19.2495 -51.0303 135° Southeast  Level FlightAware Approximate
05:59AM -19.3466 -50.9282 135° Southeast  Level FlightAware Approximate
05:59AM -19.2880 -50.3350 135° Southeast 486 559 39,000  Level FlightAware
05:59AM -19.3430 -50.2790 136° Southeast 486 559 39,000  Level FlightAware
06:00AM -19.4200 -50.1870 132° Southeast 485 558 39,000  Level FlightAware
06:01AM -19.4870 -50.1180 136° Southeast 485 558 39,000  Level FlightAware
06:01AM -19.5480 -50.0470 132° Southeast 486 559 39,000  Level FlightAware
06:02AM -19.6130 -49.9750 134° Southeast 486 559 39,000  Level FlightAware
06:03AM -19.6790 -49.9030 134° Southeast 486 559 39,000  Level FlightAware
06:04AM -19.7540 -49.8210 134° Southeast 486 559 39,000  Level FlightAware
06:04AM -19.8230 -49.7440 134° Southeast 486 559 39,000  Level FlightAware
06:05AM -19.8860 -49.6740 134° Southeast 486 559 39,000  Level FlightAware
06:06AM -19.9600 -49.5930 134° Southeast 484 557 39,000  Level FlightAware
06:06AM -20.0240 -49.5220 134° Southeast 485 558 39,000  Level FlightAware
06:07AM -20.0750 -49.4650 134° Southeast 485 558 39,000  Level FlightAware
06:08AM -20.1620 -49.3680 134° Southeast 39,000  Level FlightAware
06:09AM -20.2340 -49.2880 134° Southeast 39,000  Level FlightAware
06:09AM -20.3120 -49.2010 134° Southeast 39,000  Level FlightAware
06:10AM -20.3640 -49.1430 134° Southeast 39,000  Level FlightAware
06:11AM -20.4200 -49.0810 134° Southeast 39,000  Level FlightAware
06:11AM -20.4870 -49.0050 133° Southeast 39,000  Level FlightAware
06:12AM -20.5900 -48.8900 134° Southeast 39,000  Level FlightAware
06:13AM -20.6660 -48.8040 133° Southeast 39,000  Level FlightAware
06:14AM -20.7290 -48.7330 133° Southeast 39,000  Level FlightAware
06:14AM -20.7900 -48.6650 134° Southeast 39,000  Level FlightAware
06:15AM -20.8570 -48.5890 133° Southeast 39,000  Level FlightAware
06:16AM -20.9310 -48.5050 133° Southeast 39,000  Level FlightAware
06:17AM -20.9960 -48.4320 134° Southeast 39,000  Level FlightAware
06:17AM -21.0490 -48.3710 133° Southeast 39,000  Level FlightAware
06:18AM -21.1210 -48.2900 134° Southeast 39,000  Level FlightAware
06:19AM -21.1840 -48.2190 134° Southeast 39,000  Level FlightAware
06:19AM -21.2450 -48.1480 133° Southeast 39,000  Level FlightAware
06:20AM -21.3090 -48.0760 134° Southeast 39,000  Level FlightAware
06:21AM -21.3660 -48.0100 133° Southeast 39,000  Level FlightAware
06:21AM -21.4320 -47.9360 134° Southeast 39,000  Level FlightAware
06:22AM -21.5180 -47.8370 133° Southeast 39,000  Level FlightAware
06:23AM -21.5790 -47.7670 133° Southeast 39,000  Level FlightAware
06:24AM -21.6490 -47.6870 133° Southeast 39,000  Level FlightAware
06:24AM -21.7110 -47.6160 133° Southeast 39,000  Level FlightAware
06:25AM -21.7700 -47.5480 133° Southeast 38,700 -480 Descending FlightAware
06:26AM -21.8420 -47.4650 133° Southeast 37,800 -1,200 Descending FlightAware
06:26AM -21.9090 -47.3870 133° Southeast 36,100 -2,280 Descending FlightAware
06:27AM -21.9760 -47.3210 138° Southeast 34,000 -3,180 Descending FlightAware
06:28AM -22.0540 -47.2790 153° Southeast 31,900 -3,180 Descending FlightAware
06:29AM -22.1460 -47.2410 159° South 29,500 -3,240 Descending FlightAware
06:29AM -22.2320 -47.2060 159° South 27,800 -2,580 Descending FlightAware
06:30AM -22.3240 -47.1680 159° South 25,900 -2,580 Descending FlightAware
06:31AM -22.4050 -47.1340 159° South 24,200 -2,580 Descending FlightAware
06:31AM -22.4810 -47.1020 159° South 23,000 -1,800 Descending FlightAware
06:32AM -22.5560 -47.0690 158° South 21,100 -2,880 Descending FlightAware
06:33AM -22.6270 -47.0390 159° South 19,600 -2,280 Descending FlightAware
06:33AM -22.6980 -47.0090 159° South 18,100 -2,280 Descending FlightAware
06:34AM -22.7690 -46.9790 159° South 16,500 -2,400 Descending FlightAware
06:35AM -22.8310 -46.9530 159° South 15,300 -2,100 Descending FlightAware
06:36AM -22.9710 -46.8940 159° South 12,800 -1,680 Descending FlightAware
06:37AM -23.0640 -46.8550 159° South 10,200 -2,400 Descending FlightAware
06:38AM -23.1580 -46.8150 159° South 8,700 -1,200 Descending FlightAware
06:40AM -23.2480 -46.7770 159° South 7,500 -900 Descending FlightAware
06:41AM -23.3170 -46.7470 158° South 7,200 -300 Descending FlightAware
06:42AM -23.3960 -46.6980 150° Southeast 6,400 -600 Descending FlightAware
06:43AM -23.4480 -46.6390 134° Southeast 5,300 -960 Descending FlightAware
06:46AM -23.4167 -46.4667 137° Southeast  Level FlightAware Approximate
06:46AM -23.4480 -46.5110 137° Southeast 3,300  Level FlightAware
06:48AM -23.4321 -46.4695 137° Southeast  Level Estimated